Time;durP1;ratioP1;P1;durP2;ratioP2;P2;SDS_P1;SDS_P2;PMS_P1;PMS_P2;Temp;Humidity;BMP_temperature;BMP_pressure;BME280_temperature;BME280_humidity;BME280_pressure;Samples;Min_cycle;Max_cycle;Signal;HPM_P1;HPM_P2
2020/12/06 00:00:29;;;;;;;18.17;10.50;;;4.10;99.90;;;;;;5036955;28;20236;-84
2020/12/06 00:02:55;;;;;;;19.10;10.40;;;4.10;99.90;;;;;;5055856;28;20227;-87
2020/12/06 00:05:20;;;;;;;17.23;10.00;;;4.20;99.90;;;;;;5029543;28;20227;-85
2020/12/06 00:07:46;;;;;;;18.63;10.27;;;4.10;99.90;;;;;;5069696;28;20269;-86
2020/12/06 00:10:18;;;;;;;16.60;10.50;;;4.00;99.90;;;;;;5038337;28;20298;-86
2020/12/06 00:12:46;;;;;;;18.63;10.27;;;4.00;99.90;;;;;;5034720;28;20180;-86
2020/12/06 00:15:13;;;;;;;17.97;9.83;;;4.00;99.90;;;;;;5037255;28;20267;-85
2020/12/06 00:17:38;;;;;;;17.80;10.73;;;3.90;99.90;;;;;;5048559;28;20262;-86
2020/12/06 00:20:07;;;;;;;16.20;9.90;;;3.90;99.90;;;;;;5055909;28;20270;-86
2020/12/06 00:22:33;;;;;;;18.30;10.30;;;3.80;99.90;;;;;;5030393;28;20183;-86
2020/12/06 00:24:59;;;;;;;18.33;10.77;;;3.80;99.90;;;;;;5069571;28;20208;-85
2020/12/06 00:27:24;;;;;;;16.73;10.50;;;3.70;99.90;;;;;;5065732;28;20676;-86
2020/12/06 00:29:50;;;;;;;19.10;11.30;;;3.70;99.90;;;;;;5069332;28;20208;-86
2020/12/06 00:32:16;;;;;;;18.47;11.00;;;3.60;99.90;;;;;;5037204;28;20207;-86
2020/12/06 00:34:42;;;;;;;18.80;10.63;;;3.60;99.90;;;;;;5064267;28;20184;-86
2020/12/06 00:37:07;;;;;;;17.93;10.57;;;3.60;99.90;;;;;;5036778;28;20179;-85
2020/12/06 00:39:33;;;;;;;18.53;10.80;;;3.50;99.90;;;;;;5039005;28;20329;-85
2020/12/06 00:41:59;;;;;;;18.70;11.07;;;3.50;99.90;;;;;;5037066;28;20214;-85
2020/12/06 00:44:24;;;;;;;19.03;10.53;;;3.50;99.90;;;;;;5042115;28;20224;-85
2020/12/06 00:46:50;;;;;;;19.13;11.77;;;3.60;99.90;;;;;;5036483;28;20256;-85
2020/12/06 00:49:16;;;;;;;19.37;11.87;;;3.60;99.90;;;;;;5036926;28;20207;-86
2020/12/06 00:51:41;;;;;;;21.13;11.33;;;3.60;99.90;;;;;;5036788;28;20258;-86
2020/12/06 00:54:07;;;;;;;18.57;11.27;;;3.70;99.90;;;;;;5071966;28;21042;-86
2020/12/06 00:56:33;;;;;;;18.37;11.07;;;3.50;99.90;;;;;;5086931;28;20187;-87
2020/12/06 00:58:59;;;;;;;17.73;10.73;;;3.60;99.90;;;;;;5052205;28;20175;-86
2020/12/06 01:01:25;;;;;;;19.57;10.70;;;3.50;99.90;;;;;;5040062;28;20205;-86
2020/12/06 01:03:50;;;;;;;21.10;11.57;;;3.40;99.90;;;;;;5038841;28;20220;-85
2020/12/06 01:06:18;;;;;;;18.97;11.27;;;3.40;99.90;;;;;;5038527;28;20191;-86
2020/12/06 01:08:44;;;;;;;19.47;11.90;;;3.50;99.90;;;;;;5052330;28;20193;-86
2020/12/06 01:11:13;;;;;;;20.73;11.50;;;3.50;99.90;;;;;;5036495;28;20177;-86
2020/12/06 01:13:43;;;;;;;20.10;11.70;;;3.40;99.90;;;;;;5040859;28;20194;-87
2020/12/06 01:16:12;;;;;;;20.60;12.03;;;3.40;99.90;;;;;;5055578;28;20202;-86
2020/12/06 01:18:38;;;;;;;20.77;11.23;;;3.30;99.90;;;;;;5053934;28;20191;-87
2020/12/06 01:21:04;;;;;;;17.47;11.03;;;3.30;99.90;;;;;;5040840;28;20189;-85
2020/12/06 01:23:29;;;;;;;19.03;10.87;;;3.30;99.90;;;;;;5070743;28;20172;-85
2020/12/06 01:25:55;;;;;;;18.90;11.17;;;3.20;99.90;;;;;;5025527;28;20707;-86
2020/12/06 01:28:21;;;;;;;19.50;11.27;;;3.20;99.90;;;;;;5012207;28;20184;-86
2020/12/06 01:30:47;;;;;;;20.03;11.30;;;3.20;99.90;;;;;;5029164;28;20208;-85
2020/12/06 01:33:14;;;;;;;20.17;12.10;;;3.30;99.90;;;;;;5009958;28;20207;-86
2020/12/06 01:35:39;;;;;;;20.07;11.80;;;3.30;99.90;;;;;;5016490;28;20277;-86
2020/12/06 01:38:06;;;;;;;20.57;11.63;;;3.30;99.90;;;;;;5007932;28;20624;-86
2020/12/06 01:40:31;;;;;;;18.77;11.57;;;3.30;99.90;;;;;;5016365;28;20176;-86
2020/12/06 01:42:59;;;;;;;19.63;11.83;;;3.30;99.90;;;;;;5031116;28;20195;-87
2020/12/06 01:45:25;;;;;;;19.30;11.23;;;3.30;99.90;;;;;;5010707;28;20188;-87
2020/12/06 01:47:51;;;;;;;16.70;10.83;;;3.20;99.90;;;;;;5016273;28;20280;-87
2020/12/06 01:50:18;;;;;;;19.57;10.77;;;3.20;99.90;;;;;;5012302;28;20205;-88
2020/12/06 01:52:46;;;;;;;18.93;10.53;;;3.10;99.90;;;;;;5012073;28;20185;-87
2020/12/06 01:55:13;;;;;;;23.83;11.57;;;3.20;99.90;;;;;;5023971;28;20695;-87
2020/12/06 01:57:39;;;;;;;18.37;10.57;;;3.20;99.90;;;;;;5012298;28;20619;-86
2020/12/06 02:00:07;;;;;;;19.67;11.37;;;3.20;99.90;;;;;;5007602;28;20193;-86
2020/12/06 02:02:36;;;;;;;18.37;11.20;;;3.20;99.90;;;;;;5047517;28;20268;-87
2020/12/06 02:05:05;;;;;;;19.87;12.00;;;3.10;99.90;;;;;;5031220;28;20222;-87
2020/12/06 02:07:35;;;;;;;18.17;11.27;;;3.10;99.90;;;;;;5016378;28;20208;-87
2020/12/06 02:10:01;;;;;;;21.43;11.10;;;3.20;99.90;;;;;;5016327;28;20209;-87
2020/12/06 02:12:26;;;;;;;19.50;11.50;;;3.10;99.90;;;;;;5032194;28;20644;-87
2020/12/06 02:14:52;;;;;;;17.83;10.90;;;3.10;99.90;;;;;;5031567;28;20181;-88
2020/12/06 02:17:18;;;;;;;21.97;11.73;;;3.10;99.90;;;;;;5000638;28;20263;-87
2020/12/06 02:19:44;;;;;;;18.87;10.53;;;3.10;99.90;;;;;;5015725;28;20185;-87
2020/12/06 02:22:09;;;;;;;19.77;11.33;;;3.00;99.90;;;;;;5002404;28;20193;-87
2020/12/06 02:24:35;;;;;;;20.33;12.07;;;3.10;99.90;;;;;;5017732;28;20196;-87
2020/12/06 02:27:01;;;;;;;21.17;10.63;;;3.10;99.90;;;;;;5014589;28;20236;-88
2020/12/06 02:29:26;;;;;;;21.37;11.50;;;3.00;99.90;;;;;;5032177;28;20264;-87
2020/12/06 02:31:52;;;;;;;18.10;11.10;;;3.00;99.90;;;;;;5033561;28;20209;-87
2020/12/06 02:34:18;;;;;;;21.40;11.80;;;3.00;99.90;;;;;;5032662;28;20204;-87
2020/12/06 02:36:43;;;;;;;20.03;11.43;;;3.00;99.90;;;;;;5049880;28;20189;-87
2020/12/06 02:39:11;;;;;;;20.30;11.43;;;2.90;99.90;;;;;;5030267;28;20219;-87
2020/12/06 02:41:42;;;;;;;20.43;12.07;;;3.10;99.90;;;;;;5064126;28;20212;-87
2020/12/06 02:44:09;;;;;;;20.40;11.77;;;3.10;99.90;;;;;;5017113;28;20272;-87
2020/12/06 02:46:36;;;;;;;21.17;11.87;;;3.10;99.90;;;;;;5047145;28;20292;-85
2020/12/06 02:49:03;;;;;;;20.20;11.53;;;3.20;99.90;;;;;;5046722;28;20287;-86
2020/12/06 02:51:29;;;;;;;21.30;12.17;;;3.10;99.90;;;;;;5049458;28;20181;-84
2020/12/06 02:53:55;;;;;;;19.77;11.93;;;3.10;99.90;;;;;;5031448;28;20195;-87
2020/12/06 02:56:21;;;;;;;20.47;12.70;;;3.10;99.90;;;;;;5032357;28;20180;-85
2020/12/06 02:58:47;;;;;;;20.47;12.53;;;3.20;99.90;;;;;;5047873;28;20632;-85
2020/12/06 03:01:13;;;;;;;19.83;11.10;;;3.30;99.90;;;;;;5062366;28;20184;-85
2020/12/06 03:03:39;;;;;;;20.67;13.82;;;3.30;99.90;;;;;;5031408;28;20555;-85
2020/12/06 03:06:05;;;;;;;21.13;11.87;;;3.10;99.90;;;;;;5064087;28;20172;-84
2020/12/06 03:08:30;;;;;;;20.10;11.73;;;3.10;99.90;;;;;;5045891;28;20233;-85
2020/12/06 03:10:56;;;;;;;20.47;12.10;;;3.10;99.90;;;;;;5063749;28;20259;-83
2020/12/06 03:13:22;;;;;;;17.60;11.50;;;3.10;99.90;;;;;;5031096;28;20306;-84
2020/12/06 03:15:47;;;;;;;21.40;13.03;;;3.10;99.90;;;;;;5032685;28;20652;-86
2020/12/06 03:18:13;;;;;;;20.80;11.97;;;3.10;99.90;;;;;;5046353;28;20280;-84
2020/12/06 03:20:39;;;;;;;22.57;12.57;;;3.20;99.90;;;;;;5016063;28;20209;-84
2020/12/06 03:23:04;;;;;;;22.60;13.07;;;3.20;99.90;;;;;;5043663;28;20283;-86
2020/12/06 03:25:30;;;;;;;23.60;13.57;;;3.20;99.90;;;;;;5017963;28;20232;-83
2020/12/06 03:27:56;;;;;;;23.63;13.30;;;3.20;99.90;;;;;;5024444;28;20197;-84
2020/12/06 03:30:21;;;;;;;24.97;13.93;;;3.20;99.90;;;;;;5009326;28;20327;-84
2020/12/06 03:32:47;;;;;;;23.77;14.03;;;3.20;99.90;;;;;;5046713;28;20545;-86
2020/12/06 03:35:13;;;;;;;24.40;14.23;;;3.20;99.90;;;;;;5007433;28;20180;-87
2020/12/06 03:37:38;;;;;;;26.90;14.43;;;3.30;99.90;;;;;;5043107;28;20187;-86
2020/12/06 03:40:04;;;;;;;23.90;13.87;;;3.30;99.90;;;;;;5006859;28;20184;-85
2020/12/06 03:42:30;;;;;;;25.57;15.07;;;3.40;99.90;;;;;;5012482;28;20192;-86
2020/12/06 03:44:55;;;;;;;25.37;14.70;;;3.40;99.90;;;;;;5012761;28;20231;-85
2020/12/06 03:47:21;;;;;;;22.77;14.27;;;3.30;99.90;;;;;;5008623;28;20199;-85
2020/12/06 03:49:47;;;;;;;23.40;13.47;;;3.20;99.90;;;;;;5014659;28;20213;-85
2020/12/06 03:52:13;;;;;;;23.57;13.33;;;3.10;99.90;;;;;;5008611;28;20273;-84
2020/12/06 03:54:38;;;;;;;23.80;12.23;;;2.90;99.90;;;;;;5030226;28;20660;-86
2020/12/06 03:57:04;;;;;;;18.67;11.73;;;2.80;99.90;;;;;;5005595;28;20177;-85
2020/12/06 03:59:30;;;;;;;20.87;12.07;;;2.70;99.90;;;;;;5029723;28;20184;-83
2020/12/06 04:01:56;;;;;;;23.73;13.10;;;2.60;99.90;;;;;;5041356;28;20192;-85
2020/12/06 04:04:21;;;;;;;23.83;14.40;;;2.70;99.90;;;;;;5022799;28;20212;-85
2020/12/06 04:06:47;;;;;;;25.03;14.90;;;2.70;99.90;;;;;;5014247;28;20279;-85
2020/12/06 04:09:13;;;;;;;30.63;15.47;;;2.90;99.90;;;;;;5024353;28;20290;-82
2020/12/06 04:11:38;;;;;;;25.57;14.20;;;3.10;99.90;;;;;;5014559;28;20178;-85
2020/12/06 04:14:04;;;;;;;26.07;14.33;;;3.00;99.90;;;;;;5005738;28;20219;-86
2020/12/06 04:16:29;;;;;;;31.70;14.93;;;2.90;99.90;;;;;;5014283;28;20664;-86
2020/12/06 04:18:55;;;;;;;25.73;15.13;;;2.90;99.90;;;;;;5010625;28;20653;-85
2020/12/06 04:21:21;;;;;;;24.07;13.43;;;2.80;99.90;;;;;;5012214;28;20185;-85
2020/12/06 04:23:46;;;;;;;26.67;14.73;;;2.80;99.90;;;;;;5046162;28;20694;-86
2020/12/06 04:26:12;;;;;;;24.50;14.33;;;2.80;99.90;;;;;;5006510;28;20239;-86
2020/12/06 04:28:38;;;;;;;24.07;14.47;;;2.80;99.90;;;;;;5014211;28;20194;-85
2020/12/06 04:31:03;;;;;;;33.00;15.20;;;2.90;99.90;;;;;;5017081;28;20172;-86
2020/12/06 04:33:29;;;;;;;24.03;13.83;;;2.80;99.90;;;;;;5048853;28;20181;-86
2020/12/06 04:35:55;;;;;;;24.43;14.23;;;2.60;99.90;;;;;;5049959;28;20651;-86
2020/12/06 04:38:20;;;;;;;25.70;14.77;;;2.50;99.90;;;;;;5034668;28;20196;-86
2020/12/06 04:40:46;;;;;;;26.17;14.60;;;2.50;99.90;;;;;;5018902;28;20173;-86
2020/12/06 04:43:14;;;;;;;25.33;14.47;;;2.50;99.90;;;;;;5033189;28;20192;-83
2020/12/06 04:45:41;;;;;;;25.00;15.20;;;2.50;99.90;;;;;;5030911;28;20220;-85
2020/12/06 04:48:10;;;;;;;24.23;13.93;;;2.50;99.90;;;;;;5066721;28;20192;-86
2020/12/06 04:50:37;;;;;;;27.40;14.70;;;2.40;99.90;;;;;;5035607;28;20213;-86
2020/12/06 04:53:06;;;;;;;23.00;14.20;;;2.50;99.90;;;;;;5029199;28;20184;-85
2020/12/06 04:55:34;;;;;;;26.67;14.50;;;2.50;99.90;;;;;;5035710;28;20212;-86
2020/12/06 04:58:01;;;;;;;26.33;13.87;;;2.50;99.90;;;;;;5036920;28;20250;-86
2020/12/06 05:00:31;;;;;;;25.77;15.23;;;2.60;99.90;;;;;;5036784;28;20263;-86
2020/12/06 05:02:59;;;;;;;25.93;14.43;;;2.60;99.90;;;;;;5054010;28;20266;-85
2020/12/06 05:05:33;;;;;;;25.23;14.57;;;2.60;99.90;;;;;;5045868;28;20257;-85
2020/12/06 05:08:03;;;;;;;26.00;14.47;;;2.50;99.90;;;;;;5068819;28;20192;-86
2020/12/06 05:10:30;;;;;;;24.33;14.90;;;2.40;99.90;;;;;;5054848;28;20207;-86
2020/12/06 05:12:55;;;;;;;26.27;15.23;;;2.50;99.90;;;;;;5037227;28;20298;-85
2020/12/06 05:15:21;;;;;;;25.60;15.10;;;2.50;99.90;;;;;;5037196;28;20275;-83
2020/12/06 05:17:47;;;;;;;23.30;15.03;;;2.60;99.90;;;;;;5037216;28;20184;-83
2020/12/06 05:20:12;;;;;;;27.70;14.97;;;2.60;99.90;;;;;;5037880;28;20682;-85
2020/12/06 05:22:47;;;;;;;25.13;14.77;;;2.70;99.90;;;;;;5037308;28;20181;-85
2020/12/06 05:25:16;;;;;;;23.27;13.73;;;2.60;99.90;;;;;;5034232;28;20230;-85
2020/12/06 05:27:43;;;;;;;23.40;13.03;;;2.60;99.90;;;;;;5071835;28;20172;-85
2020/12/06 05:30:09;;;;;;;21.43;13.53;;;2.60;99.90;;;;;;5036777;28;20219;-85
2020/12/06 05:32:35;;;;;;;23.40;14.80;;;2.60;99.90;;;;;;5036757;28;20222;-86
2020/12/06 05:35:01;;;;;;;23.13;13.30;;;2.50;99.90;;;;;;5036753;28;20188;-86
2020/12/06 05:37:27;;;;;;;23.57;14.40;;;2.50;99.90;;;;;;5018208;28;20187;-85
2020/12/06 05:40:06;;;;;;;24.23;15.07;;;2.50;99.90;;;;;;5054379;28;20189;-86
2020/12/06 05:42:39;;;;;;;26.10;14.77;;;2.60;99.90;;;;;;5035627;28;20215;-86
2020/12/06 05:45:05;;;;;;;25.00;14.73;;;2.70;99.90;;;;;;5053262;28;20212;-88
2020/12/06 05:47:32;;;;;;;28.23;15.67;;;2.70;99.90;;;;;;5050299;28;20272;-87
2020/12/06 05:49:58;;;;;;;27.13;16.07;;;2.70;99.90;;;;;;5036365;28;20540;-86
2020/12/06 05:52:27;;;;;;;25.70;15.93;;;2.80;99.90;;;;;;5036612;28;20245;-85
2020/12/06 05:54:55;;;;;;;24.57;14.30;;;2.90;99.90;;;;;;5053067;28;20274;-85
2020/12/06 05:57:30;;;;;;;24.93;15.33;;;3.00;99.90;;;;;;5024414;28;20180;-86
2020/12/06 05:59:57;;;;;;;24.37;14.87;;;3.00;99.90;;;;;;5050529;28;20229;-85
2020/12/06 06:02:24;;;;;;;22.83;14.47;;;3.10;99.90;;;;;;5035455;28;20189;-85
2020/12/06 06:04:51;;;;;;;26.67;15.43;;;3.10;99.90;;;;;;5034383;28;20207;-85
2020/12/06 06:07:22;;;;;;;23.73;15.03;;;3.10;99.90;;;;;;5052195;28;20188;-85
2020/12/06 06:09:53;;;;;;;21.57;13.97;;;3.20;99.90;;;;;;5036505;28;20251;-86
2020/12/06 06:12:38;;;;;;;28.27;16.10;;;3.30;99.90;;;;;;5052652;28;20212;-84
2020/12/06 06:15:04;;;;;;;26.73;16.03;;;3.30;99.90;;;;;;5033913;28;20215;-85
2020/12/06 06:17:31;;;;;;;30.10;17.53;;;3.30;99.90;;;;;;5016614;28;20184;-85
2020/12/06 06:19:57;;;;;;;39.33;22.90;;;3.40;99.90;;;;;;5035273;28;20193;-85
2020/12/06 06:22:34;;;;;;;28.10;15.97;;;3.40;99.90;;;;;;5018873;28;20188;-85
2020/12/06 06:25:01;;;;;;;23.57;14.20;;;3.30;99.90;;;;;;5032703;28;20195;-86
2020/12/06 06:27:34;;;;;;;26.07;13.90;;;3.10;99.90;;;;;;5028273;28;20200;-86
2020/12/06 06:30:03;;;;;;;20.73;13.17;;;3.00;99.90;;;;;;5051440;28;20565;-85
2020/12/06 06:32:29;;;;;;;23.67;14.17;;;2.90;99.90;;;;;;5029758;28;20184;-85
2020/12/06 06:34:55;;;;;;;23.07;13.03;;;3.00;99.90;;;;;;5054695;28;20189;-85
2020/12/06 06:37:28;;;;;;;21.73;12.87;;;3.00;99.90;;;;;;5054549;28;20642;-86
2020/12/06 06:40:02;;;;;;;21.43;12.50;;;2.80;99.90;;;;;;5071285;28;20179;-85
2020/12/06 06:42:29;;;;;;;20.70;12.63;;;2.80;99.90;;;;;;5067467;28;20633;-86
2020/12/06 06:45:05;;;;;;;23.23;13.83;;;2.90;99.90;;;;;;5041451;28;20702;-85
2020/12/06 06:47:35;;;;;;;22.50;14.23;;;3.00;99.90;;;;;;5068795;28;20270;-85
2020/12/06 06:50:01;;;;;;;26.50;15.50;;;3.00;99.90;;;;;;5034800;28;20231;-83
2020/12/06 06:52:28;;;;;;;24.00;14.53;;;3.10;99.90;;;;;;5032294;28;20645;-86
2020/12/06 06:54:58;;;;;;;23.50;14.37;;;3.00;99.90;;;;;;5054522;28;20237;-85
2020/12/06 06:57:26;;;;;;;26.03;14.93;;;2.90;99.90;;;;;;5038210;28;20270;-85
2020/12/06 06:59:54;;;;;;;24.47;14.77;;;2.90;99.90;;;;;;5055408;28;20172;-86
2020/12/06 07:02:42;;;;;;;24.50;15.63;;;2.90;99.90;;;;;;5051154;28;20719;-85
2020/12/06 07:05:14;;;;;;;27.80;16.13;;;2.90;99.90;;;;;;5069870;28;20192;-85
2020/12/06 07:07:47;;;;;;;25.63;16.23;;;2.90;99.90;;;;;;5038407;28;20279;-85
2020/12/06 07:10:15;;;;;;;27.10;16.13;;;2.90;99.90;;;;;;5037485;28;20290;-85
2020/12/06 07:12:58;;;;;;;28.17;15.87;;;2.90;99.90;;;;;;5050400;28;20184;-85
2020/12/06 07:15:25;;;;;;;28.60;17.13;;;3.00;99.90;;;;;;5032025;28;20437;-85
2020/12/06 07:17:52;;;;;;;29.83;17.57;;;3.00;99.90;;;;;;5036758;28;20199;-86
2020/12/06 07:20:19;;;;;;;28.13;16.60;;;3.00;99.90;;;;;;5047177;28;20705;-86
2020/12/06 07:22:46;;;;;;;25.57;15.17;;;3.20;99.90;;;;;;5067881;28;20188;-85
2020/12/06 07:25:13;;;;;;;26.63;14.10;;;3.20;99.90;;;;;;5041768;28;20258;-85
2020/12/06 07:27:40;;;;;;;21.20;13.00;;;3.10;99.90;;;;;;5052783;28;20183;-85
2020/12/06 07:30:11;;;;;;;27.50;14.27;;;3.00;99.90;;;;;;5039324;28;20246;-86
2020/12/06 07:32:37;;;;;;;22.87;14.43;;;3.00;99.90;;;;;;5069618;28;20261;-85
2020/12/06 07:35:05;;;;;;;25.53;15.20;;;3.10;99.90;;;;;;5037711;28;20537;-85
2020/12/06 07:37:30;;;;;;;27.43;17.10;;;3.20;99.90;;;;;;5052178;28;20249;-85
2020/12/06 07:39:56;;;;;;;28.07;17.00;;;3.30;99.90;;;;;;5036909;28;20191;-85
2020/12/06 07:42:26;;;;;;;25.10;15.77;;;3.30;99.90;;;;;;5037822;28;20195;-85
2020/12/06 07:44:57;;;;;;;25.27;16.33;;;3.30;99.90;;;;;;5071101;28;20186;-85
2020/12/06 07:47:24;;;;;;;27.10;15.23;;;3.20;99.90;;;;;;5067357;28;20187;-85
2020/12/06 07:49:50;;;;;;;19.87;13.17;;;3.30;99.90;;;;;;5038145;28;20310;-85
2020/12/06 07:52:22;;;;;;;23.37;13.93;;;3.30;99.90;;;;;;5034503;28;20211;-85
2020/12/06 07:55:00;;;;;;;22.17;13.13;;;3.20;99.90;;;;;;5043429;28;20627;-86
2020/12/06 07:57:26;;;;;;;22.93;14.17;;;3.20;99.90;;;;;;5053397;28;20195;-85
2020/12/06 07:59:52;;;;;;;23.77;14.37;;;3.30;99.90;;;;;;5053931;28;20187;-85
2020/12/06 08:02:19;;;;;;;27.17;14.47;;;3.40;99.90;;;;;;5036219;28;20182;-85
2020/12/06 08:04:45;;;;;;;23.20;14.07;;;3.40;99.90;;;;;;5069677;28;20190;-85
2020/12/06 08:07:17;;;;;;;23.33;14.23;;;3.50;99.90;;;;;;5035437;28;20179;-86
2020/12/06 08:09:46;;;;;;;24.73;14.83;;;3.40;99.90;;;;;;5064480;28;20265;-86
2020/12/06 08:12:13;;;;;;;22.27;13.87;;;3.60;99.90;;;;;;5050873;28;20190;-85
2020/12/06 08:14:39;;;;;;;22.63;14.07;;;3.60;99.90;;;;;;5051208;28;20237;-85
2020/12/06 08:17:05;;;;;;;23.57;14.80;;;3.80;99.90;;;;;;5068027;28;20747;-85
2020/12/06 08:19:31;;;;;;;23.73;14.07;;;3.90;99.90;;;;;;5067656;28;20673;-85
2020/12/06 08:22:03;;;;;;;25.30;14.97;;;4.00;99.90;;;;;;5035060;28;21518;-86
2020/12/06 08:24:30;;;;;;;22.53;14.50;;;4.00;99.90;;;;;;5049942;28;20194;-85
2020/12/06 08:26:57;;;;;;;23.83;14.57;;;3.90;99.90;;;;;;5056331;28;20264;-85
2020/12/06 08:29:37;;;;;;;25.87;16.50;;;4.00;99.90;;;;;;5073133;28;20221;-85
2020/12/06 08:32:04;;;;;;;25.27;15.37;;;4.20;99.90;;;;;;5071680;28;20261;-85
2020/12/06 08:34:32;;;;;;;23.50;14.03;;;4.30;99.90;;;;;;5039567;28;20625;-84
2020/12/06 08:37:18;;;;;;;25.63;14.90;;;4.20;99.90;;;;;;5088484;28;20233;-85
2020/12/06 08:39:45;;;;;;;22.30;14.03;;;4.20;99.90;;;;;;5053378;28;20226;-85
2020/12/06 08:42:19;;;;;;;24.07;15.60;;;4.40;99.90;;;;;;5056186;28;20186;-85
2020/12/06 08:44:51;;;;;;;23.83;15.03;;;4.50;99.90;;;;;;5070493;28;20273;-85
2020/12/06 08:47:18;;;;;;;25.40;15.60;;;4.50;99.90;;;;;;5072010;28;20319;-86
2020/12/06 08:49:43;;;;;;;23.27;14.57;;;4.50;99.90;;;;;;5038768;28;21626;-86
2020/12/06 08:52:21;;;;;;;23.77;14.20;;;4.40;99.90;;;;;;5073104;28;20180;-85
2020/12/06 08:54:48;;;;;;;21.70;13.70;;;4.40;99.90;;;;;;5060210;28;20182;-85
2020/12/06 08:57:14;;;;;;;24.00;14.00;;;4.40;99.90;;;;;;5055572;28;20286;-85
2020/12/06 08:59:42;;;;;;;26.57;17.80;;;4.50;99.90;;;;;;5072092;28;20183;-85
2020/12/06 09:02:08;;;;;;;24.37;15.33;;;4.60;99.90;;;;;;5048021;28;20280;-85
2020/12/06 09:04:35;;;;;;;23.00;14.97;;;4.70;99.90;;;;;;5039954;28;20242;-86
2020/12/06 09:07:03;;;;;;;24.07;15.03;;;4.70;99.90;;;;;;5039854;28;20190;-85
2020/12/06 09:09:29;;;;;;;29.10;15.97;;;4.70;99.90;;;;;;5070468;28;20290;-85
2020/12/06 09:11:55;;;;;;;25.00;16.27;;;4.90;99.90;;;;;;5070695;28;20251;-85
2020/12/06 09:14:21;;;;;;;25.30;16.73;;;4.90;99.90;;;;;;5042948;28;20271;-85
2020/12/06 09:16:47;;;;;;;24.47;16.00;;;4.80;99.90;;;;;;5039800;28;20648;-84
2020/12/06 09:19:13;;;;;;;25.70;16.30;;;4.60;99.90;;;;;;5037661;28;20193;-84
2020/12/06 09:21:40;;;;;;;25.60;16.47;;;4.40;99.90;;;;;;5068846;28;20201;-85
2020/12/06 09:24:06;;;;;;;25.47;16.97;;;4.40;99.90;;;;;;5040362;28;20520;-85
2020/12/06 09:26:32;;;;;;;26.10;16.40;;;4.40;99.90;;;;;;5039490;28;20690;-85
2020/12/06 09:28:58;;;;;;;24.73;15.87;;;4.50;99.90;;;;;;5088579;28;20212;-86
2020/12/06 09:31:24;;;;;;;26.10;15.60;;;4.50;99.90;;;;;;5037067;28;20299;-86
2020/12/06 09:33:53;;;;;;;25.87;16.20;;;4.70;99.90;;;;;;5040910;28;20185;-85
2020/12/06 09:36:19;;;;;;;24.40;15.30;;;4.80;99.90;;;;;;5056294;28;20185;-82
2020/12/06 09:38:47;;;;;;;26.13;15.90;;;5.10;99.90;;;;;;5056091;28;20270;-86
2020/12/06 09:41:13;;;;;;;25.43;16.23;;;5.20;99.90;;;;;;5043311;28;20518;-85
2020/12/06 09:43:40;;;;;;;23.53;15.43;;;5.30;99.90;;;;;;5039965;28;20188;-86
2020/12/06 09:46:07;;;;;;;25.43;16.80;;;5.50;99.90;;;;;;5072719;28;20651;-87
2020/12/06 09:48:33;;;;;;;25.47;16.57;;;5.60;99.90;;;;;;5054736;28;20612;-87
2020/12/06 09:50:59;;;;;;;26.70;16.33;;;5.70;99.90;;;;;;5072203;28;20352;-87
2020/12/06 09:53:24;;;;;;;23.77;15.33;;;5.80;99.90;;;;;;5058462;28;20184;-87
2020/12/06 09:55:50;;;;;;;21.47;14.73;;;5.80;99.90;;;;;;5040014;28;20180;-87
2020/12/06 09:58:15;;;;;;;20.90;14.10;;;5.70;99.90;;;;;;5056299;28;20681;-86
2020/12/06 10:00:42;;;;;;;25.93;15.40;;;5.80;99.90;;;;;;5040495;28;20180;-86
2020/12/06 10:03:07;;;;;;;25.27;16.77;;;5.90;99.90;;;;;;5072047;28;20208;-85
2020/12/06 10:05:33;;;;;;;26.50;18.10;;;5.80;99.90;;;;;;5069519;28;20176;-85
2020/12/06 10:07:59;;;;;;;24.63;17.30;;;5.90;99.90;;;;;;5040135;28;20212;-85
2020/12/06 10:10:24;;;;;;;29.27;16.97;;;5.90;99.90;;;;;;5038220;28;20232;-85
2020/12/06 10:12:50;;;;;;;23.37;15.93;;;6.10;99.90;;;;;;5052339;28;20209;-85
2020/12/06 10:15:16;;;;;;;26.77;16.93;;;6.20;99.90;;;;;;5041387;28;20193;-85
2020/12/06 10:17:41;;;;;;;29.33;18.77;;;6.20;99.90;;;;;;5042572;28;20197;-86
2020/12/06 10:20:07;;;;;;;29.83;18.70;;;6.20;99.90;;;;;;5050603;28;20206;-86
2020/12/06 10:22:46;;;;;;;29.00;18.53;;;6.20;99.90;;;;;;5057008;28;20608;-85
2020/12/06 10:25:11;;;;;;;30.50;18.20;;;6.20;99.90;;;;;;5068360;28;20215;-86
2020/12/06 10:27:37;;;;;;;27.57;18.40;;;6.30;99.90;;;;;;5071206;28;20563;-86
2020/12/06 10:30:05;;;;;;;26.37;18.03;;;6.40;99.90;;;;;;5075013;28;20223;-87
2020/12/06 10:32:31;;;;;;;25.33;17.57;;;6.60;99.90;;;;;;5073053;28;20206;-86
2020/12/06 10:34:56;;;;;;;28.93;19.10;;;6.60;99.90;;;;;;5053283;28;20195;-87
2020/12/06 10:37:22;;;;;;;30.53;18.60;;;6.60;99.90;;;;;;5060181;28;20224;-86
2020/12/06 10:39:48;;;;;;;27.53;18.63;;;6.60;99.90;;;;;;5069490;28;20614;-87
2020/12/06 10:42:14;;;;;;;29.20;19.27;;;6.70;99.90;;;;;;5037981;28;20187;-86
2020/12/06 10:44:39;;;;;;;28.93;18.83;;;6.50;99.90;;;;;;5055480;28;20221;-86
2020/12/06 10:47:05;;;;;;;28.97;19.07;;;6.70;99.90;;;;;;5070041;28;20290;-86
2020/12/06 10:49:31;;;;;;;31.47;19.23;;;6.70;99.90;;;;;;5038430;28;20306;-87
2020/12/06 10:51:56;;;;;;;28.93;18.70;;;6.80;99.90;;;;;;5070407;28;20183;-87
2020/12/06 10:54:22;;;;;;;36.30;22.70;;;6.80;99.90;;;;;;5072889;28;20357;-87
2020/12/06 10:56:48;;;;;;;30.93;19.47;;;6.80;99.90;;;;;;5070961;28;20237;-87
2020/12/06 10:59:13;;;;;;;27.37;17.47;;;6.90;99.90;;;;;;5040225;28;20205;-86
2020/12/06 11:01:39;;;;;;;37.47;21.23;;;6.70;99.90;;;;;;5038893;28;20263;-87
2020/12/06 11:04:06;;;;;;;32.47;18.73;;;6.50;99.90;;;;;;5071133;28;20200;-87
2020/12/06 11:06:33;;;;;;;38.17;24.97;;;6.50;99.90;;;;;;5039798;28;20194;-87
2020/12/06 11:08:58;;;;;;;31.60;22.80;;;6.50;99.90;;;;;;5067729;28;20197;-87
2020/12/06 11:11:25;;;;;;;34.77;22.67;;;6.40;99.90;;;;;;5068577;28;20227;-87
2020/12/06 11:13:51;;;;;;;33.47;22.40;;;6.20;99.90;;;;;;5066049;28;20186;-86
2020/12/06 11:16:18;;;;;;;34.87;20.90;;;6.20;99.90;;;;;;5070249;28;20183;-87
2020/12/06 11:18:49;;;;;;;30.33;19.83;;;6.20;99.90;;;;;;5049608;28;20246;-88
2020/12/06 11:21:16;;;;;;;33.43;20.50;;;6.10;99.90;;;;;;5067520;28;20343;-87
2020/12/06 11:23:42;;;;;;;37.97;22.33;;;6.10;99.90;;;;;;5039817;28;20735;-86
2020/12/06 11:26:08;;;;;;;32.90;20.33;;;6.20;99.90;;;;;;5070969;28;20316;-87
2020/12/06 11:28:34;;;;;;;33.63;21.77;;;6.10;99.90;;;;;;5068555;28;20672;-86
2020/12/06 11:31:00;;;;;;;33.17;20.20;;;6.00;99.90;;;;;;5073945;28;20196;-86
2020/12/06 11:33:25;;;;;;;38.00;24.57;;;6.00;99.90;;;;;;5037577;28;20603;-86
2020/12/06 11:35:51;;;;;;;34.33;23.27;;;6.10;99.90;;;;;;5034902;28;20223;-88
2020/12/06 11:38:17;;;;;;;35.53;23.13;;;6.10;99.90;;;;;;5052912;28;20265;-88
2020/12/06 11:40:42;;;;;;;39.13;28.60;;;6.10;99.90;;;;;;5036824;28;20195;-87
2020/12/06 11:43:08;;;;;;;44.87;31.77;;;6.10;99.90;;;;;;5070471;28;20189;-87
2020/12/06 11:45:35;;;;;;;35.77;23.43;;;6.00;99.90;;;;;;5067927;28;20286;-87
2020/12/06 11:48:01;;;;;;;39.27;25.33;;;6.10;99.90;;;;;;5068709;28;20191;-87
2020/12/06 11:50:27;;;;;;;40.20;22.90;;;6.20;99.90;;;;;;5036755;28;20207;-87
2020/12/06 11:52:52;;;;;;;36.27;22.23;;;6.30;99.90;;;;;;5052176;28;20272;-87
2020/12/06 11:55:18;;;;;;;35.90;22.97;;;6.30;99.90;;;;;;5051428;28;20554;-87
2020/12/06 11:57:44;;;;;;;36.23;22.57;;;6.30;99.90;;;;;;5086354;28;20615;-86
2020/12/06 12:00:10;;;;;;;34.80;21.27;;;6.20;99.90;;;;;;5072070;28;20180;-87
2020/12/06 12:02:39;;;;;;;33.27;21.50;;;6.40;99.90;;;;;;5054129;28;20267;-87
2020/12/06 12:05:04;;;;;;;34.60;22.30;;;6.70;99.90;;;;;;5070290;28;20190;-88
2020/12/06 12:07:31;;;;;;;35.80;22.83;;;6.90;99.90;;;;;;5038690;28;20192;-88
2020/12/06 12:09:57;;;;;;;35.40;23.30;;;7.10;99.90;;;;;;5057322;28;20277;-87
2020/12/06 12:12:23;;;;;;;36.60;22.53;;;7.20;99.90;;;;;;5030422;28;20186;-86
2020/12/06 12:14:48;;;;;;;34.30;22.57;;;7.30;99.90;;;;;;5045890;28;20195;-86
2020/12/06 12:17:14;;;;;;;34.87;20.87;;;7.30;99.90;;;;;;5033417;28;20193;-87
2020/12/06 12:19:40;;;;;;;33.50;21.30;;;7.40;99.90;;;;;;5033931;28;20543;-85
2020/12/06 12:22:05;;;;;;;32.73;21.03;;;7.30;99.90;;;;;;5066052;28;20194;-86
2020/12/06 12:24:31;;;;;;;34.03;21.47;;;7.00;99.90;;;;;;5065605;28;20192;-86
2020/12/06 12:27:00;;;;;;;35.33;21.80;;;7.30;99.90;;;;;;5048920;28;20314;-87
2020/12/06 12:29:27;;;;;;;33.00;21.53;;;7.40;99.90;;;;;;5031495;28;20298;-86
2020/12/06 12:31:53;;;;;;;34.97;21.97;;;7.20;99.90;;;;;;5033301;28;20190;-88
2020/12/06 12:34:19;;;;;;;33.73;21.83;;;7.30;99.90;;;;;;5034649;28;20188;-87